sensor_id;sensor_type;location;lat;lon;timestamp;P1;durP1;ratioP1;P2;durP2;ratioP2
62696;SDS011;48761;42.680;23.312;2023-03-23T00:02:09;39.85;;;25.15;;
62696;SDS011;48761;42.680;23.312;2023-03-23T00:04:35;46.65;;;26.42;;
62696;SDS011;48761;42.680;23.312;2023-03-23T00:07:01;38.70;;;25.33;;
62696;SDS011;48761;42.680;23.312;2023-03-23T00:09:27;41.97;;;25.58;;
62696;SDS011;48761;42.680;23.312;2023-03-23T00:11:53;35.47;;;23.05;;
62696;SDS011;48761;42.680;23.312;2023-03-23T00:14:19;39.10;;;23.23;;
62696;SDS011;48761;42.680;23.312;2023-03-23T00:16:44;35.42;;;23.67;;
62696;SDS011;48761;42.680;23.312;2023-03-23T00:19:11;42.63;;;23.73;;
62696;SDS011;48761;42.680;23.312;2023-03-23T00:21:37;40.35;;;26.20;;
62696;SDS011;48761;42.680;23.312;2023-03-23T00:24:08;39.83;;;25.27;;
62696;SDS011;48761;42.680;23.312;2023-03-23T00:26:39;40.55;;;26.45;;
62696;SDS011;48761;42.680;23.312;2023-03-23T00:29:11;42.28;;;27.85;;
62696;SDS011;48761;42.680;23.312;2023-03-23T00:31:47;48.50;;;27.52;;
62696;SDS011;48761;42.680;23.312;2023-03-23T00:34:18;44.03;;;27.35;;
62696;SDS011;48761;42.680;23.312;2023-03-23T00:36:46;38.80;;;24.00;;
62696;SDS011;48761;42.680;23.312;2023-03-23T00:39:14;42.67;;;25.95;;
62696;SDS011;48761;42.680;23.312;2023-03-23T00:41:40;38.95;;;24.35;;
62696;SDS011;48761;42.680;23.312;2023-03-23T00:44:06;42.13;;;27.88;;
62696;SDS011;48761;42.680;23.312;2023-03-23T00:46:32;42.22;;;27.17;;
62696;SDS011;48761;42.680;23.312;2023-03-23T00:48:58;45.83;;;27.85;;
62696;SDS011;48761;42.680;23.312;2023-03-23T00:51:25;43.97;;;26.77;;
62696;SDS011;48761;42.680;23.312;2023-03-23T00:53:51;54.25;;;35.63;;
62696;SDS011;48761;42.680;23.312;2023-03-23T00:56:17;54.60;;;34.67;;
62696;SDS011;48761;42.680;23.312;2023-03-23T00:58:43;67.50;;;40.75;;
62696;SDS011;48761;42.680;23.312;2023-03-23T01:01:09;76.32;;;43.55;;
62696;SDS011;48761;42.680;23.312;2023-03-23T01:03:35;71.18;;;44.42;;
62696;SDS011;48761;42.680;23.312;2023-03-23T01:06:05;76.05;;;46.90;;
62696;SDS011;48761;42.680;23.312;2023-03-23T01:08:33;77.13;;;47.55;;
62696;SDS011;48761;42.680;23.312;2023-03-23T01:11:05;83.75;;;48.17;;
62696;SDS011;48761;42.680;23.312;2023-03-23T01:13:32;71.35;;;42.72;;
62696;SDS011;48761;42.680;23.312;2023-03-23T01:15:58;65.35;;;38.05;;
62696;SDS011;48761;42.680;23.312;2023-03-23T01:18:24;72.75;;;42.63;;
62696;SDS011;48761;42.680;23.312;2023-03-23T01:20:50;75.22;;;42.55;;
62696;SDS011;48761;42.680;23.312;2023-03-23T01:23:16;57.67;;;35.42;;
62696;SDS011;48761;42.680;23.312;2023-03-23T01:25:42;65.45;;;37.47;;
62696;SDS011;48761;42.680;23.312;2023-03-23T01:28:08;58.03;;;36.42;;
62696;SDS011;48761;42.680;23.312;2023-03-23T01:30:34;62.17;;;35.25;;
62696;SDS011;48761;42.680;23.312;2023-03-23T01:32:59;60.08;;;36.15;;
62696;SDS011;48761;42.680;23.312;2023-03-23T01:35:25;59.63;;;35.75;;
62696;SDS011;48761;42.680;23.312;2023-03-23T01:37:51;54.65;;;32.08;;
62696;SDS011;48761;42.680;23.312;2023-03-23T01:40:17;55.03;;;31.45;;
62696;SDS011;48761;42.680;23.312;2023-03-23T01:42:43;47.20;;;29.75;;
62696;SDS011;48761;42.680;23.312;2023-03-23T01:47:45;50.17;;;29.75;;
62696;SDS011;48761;42.680;23.312;2023-03-23T01:50:13;46.92;;;30.67;;
62696;SDS011;48761;42.680;23.312;2023-03-23T01:52:39;50.40;;;30.80;;
62696;SDS011;48761;42.680;23.312;2023-03-23T01:55:05;46.65;;;29.98;;
62696;SDS011;48761;42.680;23.312;2023-03-23T01:57:32;46.97;;;30.10;;
62696;SDS011;48761;42.680;23.312;2023-03-23T01:59:59;47.63;;;30.73;;
62696;SDS011;48761;42.680;23.312;2023-03-23T02:02:30;49.45;;;31.23;;
62696;SDS011;48761;42.680;23.312;2023-03-23T02:04:57;43.90;;;28.83;;
62696;SDS011;48761;42.680;23.312;2023-03-23T02:07:27;48.90;;;27.88;;
62696;SDS011;48761;42.680;23.312;2023-03-23T02:09:53;46.42;;;28.65;;
62696;SDS011;48761;42.680;23.312;2023-03-23T02:12:19;44.53;;;27.52;;
62696;SDS011;48761;42.680;23.312;2023-03-23T02:14:45;42.88;;;26.25;;
62696;SDS011;48761;42.680;23.312;2023-03-23T02:25:20;38.95;;;23.52;;
62696;SDS011;48761;42.680;23.312;2023-03-23T02:30:37;37.85;;;23.48;;
62696;SDS011;48761;42.680;23.312;2023-03-23T02:36:13;37.47;;;25.38;;
62696;SDS011;48761;42.680;23.312;2023-03-23T02:38:54;38.35;;;24.25;;
62696;SDS011;48761;42.680;23.312;2023-03-23T02:41:24;40.72;;;23.98;;
62696;SDS011;48761;42.680;23.312;2023-03-23T02:43:55;36.55;;;23.73;;
62696;SDS011;48761;42.680;23.312;2023-03-23T02:46:22;36.88;;;22.85;;
62696;SDS011;48761;42.680;23.312;2023-03-23T02:48:50;34.78;;;23.42;;
62696;SDS011;48761;42.680;23.312;2023-03-23T02:51:19;39.15;;;24.38;;
62696;SDS011;48761;42.680;23.312;2023-03-23T02:53:46;40.88;;;26.08;;
62696;SDS011;48761;42.680;23.312;2023-03-23T02:56:15;43.60;;;27.40;;
62696;SDS011;48761;42.680;23.312;2023-03-23T02:58:42;43.15;;;26.73;;
62696;SDS011;48761;42.680;23.312;2023-03-23T03:03:52;37.97;;;24.98;;
62696;SDS011;48761;42.680;23.312;2023-03-23T03:06:33;36.90;;;24.50;;
62696;SDS011;48761;42.680;23.312;2023-03-23T03:11:57;50.72;;;30.52;;
62696;SDS011;48761;42.680;23.312;2023-03-23T03:14:33;52.85;;;31.85;;
62696;SDS011;48761;42.680;23.312;2023-03-23T03:17:12;51.55;;;32.25;;
62696;SDS011;48761;42.680;23.312;2023-03-23T03:19:49;55.97;;;33.05;;
62696;SDS011;48761;42.680;23.312;2023-03-23T03:22:19;51.47;;;30.05;;
62696;SDS011;48761;42.680;23.312;2023-03-23T03:24:46;52.80;;;30.63;;
62696;SDS011;48761;42.680;23.312;2023-03-23T03:27:15;48.35;;;29.17;;
62696;SDS011;48761;42.680;23.312;2023-03-23T03:29:44;48.75;;;29.00;;
62696;SDS011;48761;42.680;23.312;2023-03-23T03:32:16;47.53;;;27.52;;
62696;SDS011;48761;42.680;23.312;2023-03-23T03:34:47;45.10;;;27.52;;
62696;SDS011;48761;42.680;23.312;2023-03-23T03:37:12;41.67;;;26.15;;
62696;SDS011;48761;42.680;23.312;2023-03-23T03:39:40;34.13;;;22.88;;
62696;SDS011;48761;42.680;23.312;2023-03-23T03:42:06;39.40;;;23.70;;
62696;SDS011;48761;42.680;23.312;2023-03-23T03:44:32;33.92;;;20.90;;
62696;SDS011;48761;42.680;23.312;2023-03-23T03:46:59;34.58;;;22.27;;
62696;SDS011;48761;42.680;23.312;2023-03-23T03:49:25;31.60;;;20.65;;
62696;SDS011;48761;42.680;23.312;2023-03-23T03:51:51;30.98;;;19.92;;
62696;SDS011;48761;42.680;23.312;2023-03-23T03:54:17;24.90;;;17.52;;
62696;SDS011;48761;42.680;23.312;2023-03-23T03:56:43;24.95;;;16.98;;
62696;SDS011;48761;42.680;23.312;2023-03-23T03:59:09;26.60;;;17.23;;
62696;SDS011;48761;42.680;23.312;2023-03-23T04:01:36;26.65;;;17.45;;
62696;SDS011;48761;42.680;23.312;2023-03-23T04:04:03;29.63;;;18.42;;
62696;SDS011;48761;42.680;23.312;2023-03-23T04:06:30;25.70;;;17.10;;
62696;SDS011;48761;42.680;23.312;2023-03-23T04:08:56;26.80;;;17.63;;
62696;SDS011;48761;42.680;23.312;2023-03-23T04:11:23;27.98;;;17.30;;
62696;SDS011;48761;42.680;23.312;2023-03-23T04:13:49;28.10;;;18.38;;
62696;SDS011;48761;42.680;23.312;2023-03-23T04:16:15;27.27;;;18.80;;
62696;SDS011;48761;42.680;23.312;2023-03-23T04:18:41;30.90;;;18.88;;
62696;SDS011;48761;42.680;23.312;2023-03-23T04:21:06;27.13;;;17.83;;
62696;SDS011;48761;42.680;23.312;2023-03-23T04:23:32;28.65;;;18.20;;
62696;SDS011;48761;42.680;23.312;2023-03-23T04:25:59;29.92;;;19.42;;
62696;SDS011;48761;42.680;23.312;2023-03-23T04:28:25;26.73;;;18.02;;
62696;SDS011;48761;42.680;23.312;2023-03-23T04:30:52;28.80;;;19.45;;
62696;SDS011;48761;42.680;23.312;2023-03-23T04:33:18;29.13;;;19.15;;
62696;SDS011;48761;42.680;23.312;2023-03-23T04:35:46;34.90;;;20.15;;
62696;SDS011;48761;42.680;23.312;2023-03-23T04:38:12;32.38;;;19.83;;
62696;SDS011;48761;42.680;23.312;2023-03-23T04:40:39;30.88;;;20.15;;
62696;SDS011;48761;42.680;23.312;2023-03-23T04:43:07;30.63;;;20.45;;
62696;SDS011;48761;42.680;23.312;2023-03-23T04:45:33;37.78;;;20.70;;
62696;SDS011;48761;42.680;23.312;2023-03-23T04:48:00;35.00;;;20.45;;
62696;SDS011;48761;42.680;23.312;2023-03-23T04:50:27;31.95;;;19.60;;
62696;SDS011;48761;42.680;23.312;2023-03-23T04:52:54;30.58;;;19.35;;
62696;SDS011;48761;42.680;23.312;2023-03-23T04:55:20;30.20;;;19.00;;
62696;SDS011;48761;42.680;23.312;2023-03-23T04:57:46;30.35;;;20.42;;
62696;SDS011;48761;42.680;23.312;2023-03-23T05:00:13;37.20;;;21.33;;
62696;SDS011;48761;42.680;23.312;2023-03-23T05:02:39;37.13;;;22.52;;
62696;SDS011;48761;42.680;23.312;2023-03-23T05:05:05;35.72;;;23.33;;
62696;SDS011;48761;42.680;23.312;2023-03-23T05:07:32;34.90;;;23.13;;
62696;SDS011;48761;42.680;23.312;2023-03-23T05:09:58;37.80;;;22.98;;
62696;SDS011;48761;42.680;23.312;2023-03-23T05:12:24;34.78;;;21.13;;
62696;SDS011;48761;42.680;23.312;2023-03-23T05:14:50;35.75;;;21.10;;
62696;SDS011;48761;42.680;23.312;2023-03-23T05:17:16;39.53;;;21.38;;
62696;SDS011;48761;42.680;23.312;2023-03-23T05:19:42;36.50;;;23.58;;
62696;SDS011;48761;42.680;23.312;2023-03-23T05:22:08;61.10;;;36.58;;
62696;SDS011;48761;42.680;23.312;2023-03-23T05:24:34;35.92;;;22.38;;
62696;SDS011;48761;42.680;23.312;2023-03-23T05:27:00;42.25;;;22.85;;
62696;SDS011;48761;42.680;23.312;2023-03-23T05:29:27;39.88;;;24.13;;
62696;SDS011;48761;42.680;23.312;2023-03-23T05:31:53;50.75;;;26.45;;
62696;SDS011;48761;42.680;23.312;2023-03-23T05:34:19;45.47;;;25.48;;
62696;SDS011;48761;42.680;23.312;2023-03-23T05:36:45;47.25;;;27.85;;
62696;SDS011;48761;42.680;23.312;2023-03-23T05:39:11;45.22;;;27.17;;
62696;SDS011;48761;42.680;23.312;2023-03-23T05:41:38;44.10;;;28.08;;
62696;SDS011;48761;42.680;23.312;2023-03-23T05:44:04;52.13;;;29.20;;
62696;SDS011;48761;42.680;23.312;2023-03-23T05:46:30;53.38;;;31.52;;
62696;SDS011;48761;42.680;23.312;2023-03-23T05:48:56;54.13;;;31.92;;
62696;SDS011;48761;42.680;23.312;2023-03-23T05:51:22;53.00;;;32.13;;
62696;SDS011;48761;42.680;23.312;2023-03-23T05:53:48;44.97;;;28.73;;
62696;SDS011;48761;42.680;23.312;2023-03-23T05:56:14;48.53;;;29.60;;
62696;SDS011;48761;42.680;23.312;2023-03-23T05:58:40;44.08;;;28.88;;
62696;SDS011;48761;42.680;23.312;2023-03-23T06:01:06;44.72;;;28.67;;
62696;SDS011;48761;42.680;23.312;2023-03-23T06:03:32;42.35;;;27.67;;
62696;SDS011;48761;42.680;23.312;2023-03-23T06:05:58;48.33;;;27.80;;
62696;SDS011;48761;42.680;23.312;2023-03-23T06:08:24;43.80;;;28.48;;
62696;SDS011;48761;42.680;23.312;2023-03-23T06:10:50;48.60;;;29.73;;
62696;SDS011;48761;42.680;23.312;2023-03-23T06:13:16;50.08;;;30.00;;
62696;SDS011;48761;42.680;23.312;2023-03-23T06:15:42;55.67;;;29.70;;
62696;SDS011;48761;42.680;23.312;2023-03-23T06:18:08;50.55;;;29.70;;
62696;SDS011;48761;42.680;23.312;2023-03-23T06:20:34;50.40;;;29.60;;
62696;SDS011;48761;42.680;23.312;2023-03-23T06:22:59;51.70;;;30.33;;
62696;SDS011;48761;42.680;23.312;2023-03-23T06:25:25;64.35;;;42.13;;
62696;SDS011;48761;42.680;23.312;2023-03-23T06:27:51;48.95;;;31.92;;
62696;SDS011;48761;42.680;23.312;2023-03-23T06:30:17;51.10;;;32.03;;
62696;SDS011;48761;42.680;23.312;2023-03-23T06:32:43;61.25;;;39.70;;
62696;SDS011;48761;42.680;23.312;2023-03-23T06:35:10;55.92;;;33.38;;
62696;SDS011;48761;42.680;23.312;2023-03-23T06:37:36;55.70;;;36.05;;
62696;SDS011;48761;42.680;23.312;2023-03-23T06:40:02;60.33;;;36.83;;
62696;SDS011;48761;42.680;23.312;2023-03-23T06:42:29;41.90;;;28.30;;
62696;SDS011;48761;42.680;23.312;2023-03-23T06:44:55;50.08;;;28.33;;
62696;SDS011;48761;42.680;23.312;2023-03-23T06:47:21;46.03;;;28.30;;
62696;SDS011;48761;42.680;23.312;2023-03-23T06:49:47;42.00;;;26.98;;
62696;SDS011;48761;42.680;23.312;2023-03-23T06:52:13;43.28;;;28.08;;
62696;SDS011;48761;42.680;23.312;2023-03-23T06:54:39;41.45;;;27.67;;
62696;SDS011;48761;42.680;23.312;2023-03-23T06:57:05;44.10;;;27.67;;
62696;SDS011;48761;42.680;23.312;2023-03-23T06:59:31;42.15;;;26.05;;
62696;SDS011;48761;42.680;23.312;2023-03-23T07:01:57;44.22;;;28.65;;
62696;SDS011;48761;42.680;23.312;2023-03-23T07:04:23;45.17;;;27.35;;
62696;SDS011;48761;42.680;23.312;2023-03-23T07:06:49;38.60;;;25.67;;
62696;SDS011;48761;42.680;23.312;2023-03-23T07:09:15;41.35;;;25.50;;
62696;SDS011;48761;42.680;23.312;2023-03-23T07:11:41;43.92;;;27.23;;
62696;SDS011;48761;42.680;23.312;2023-03-23T07:14:07;43.95;;;26.75;;
62696;SDS011;48761;42.680;23.312;2023-03-23T07:16:33;44.35;;;26.98;;
62696;SDS011;48761;42.680;23.312;2023-03-23T07:18:59;40.60;;;26.90;;
62696;SDS011;48761;42.680;23.312;2023-03-23T07:21:25;40.45;;;27.05;;
62696;SDS011;48761;42.680;23.312;2023-03-23T07:23:51;39.88;;;26.02;;
62696;SDS011;48761;42.680;23.312;2023-03-23T07:26:17;47.58;;;27.05;;
62696;SDS011;48761;42.680;23.312;2023-03-23T07:28:42;36.92;;;23.40;;
62696;SDS011;48761;42.680;23.312;2023-03-23T07:31:09;36.47;;;24.55;;
62696;SDS011;48761;42.680;23.312;2023-03-23T07:33:35;44.97;;;24.42;;
62696;SDS011;48761;42.680;23.312;2023-03-23T07:36:01;34.25;;;23.02;;
62696;SDS011;48761;42.680;23.312;2023-03-23T07:38:28;33.38;;;22.63;;
62696;SDS011;48761;42.680;23.312;2023-03-23T07:40:54;48.33;;;25.00;;
62696;SDS011;48761;42.680;23.312;2023-03-23T07:43:20;30.10;;;21.58;;
62696;SDS011;48761;42.680;23.312;2023-03-23T07:45:46;34.58;;;21.33;;
62696;SDS011;48761;42.680;23.312;2023-03-23T07:48:12;36.88;;;21.92;;
62696;SDS011;48761;42.680;23.312;2023-03-23T07:50:38;36.55;;;22.27;;
62696;SDS011;48761;42.680;23.312;2023-03-23T07:53:04;40.50;;;24.92;;
62696;SDS011;48761;42.680;23.312;2023-03-23T07:55:29;40.22;;;24.73;;
62696;SDS011;48761;42.680;23.312;2023-03-23T07:57:55;38.17;;;23.65;;
62696;SDS011;48761;42.680;23.312;2023-03-23T08:00:22;36.63;;;24.02;;
62696;SDS011;48761;42.680;23.312;2023-03-23T08:02:52;36.30;;;24.02;;
62696;SDS011;48761;42.680;23.312;2023-03-23T08:05:20;34.53;;;23.30;;
62696;SDS011;48761;42.680;23.312;2023-03-23T08:07:46;39.80;;;23.98;;
62696;SDS011;48761;42.680;23.312;2023-03-23T08:10:13;33.67;;;21.77;;
62696;SDS011;48761;42.680;23.312;2023-03-23T08:12:40;34.47;;;22.15;;
62696;SDS011;48761;42.680;23.312;2023-03-23T08:15:08;36.65;;;21.75;;
62696;SDS011;48761;42.680;23.312;2023-03-23T08:17:35;35.55;;;22.20;;
62696;SDS011;48761;42.680;23.312;2023-03-23T08:20:01;35.38;;;21.90;;
62696;SDS011;48761;42.680;23.312;2023-03-23T08:22:28;33.40;;;21.58;;
62696;SDS011;48761;42.680;23.312;2023-03-23T08:24:54;27.38;;;18.67;;
62696;SDS011;48761;42.680;23.312;2023-03-23T08:27:20;31.80;;;21.48;;
62696;SDS011;48761;42.680;23.312;2023-03-23T08:29:46;28.35;;;16.98;;
62696;SDS011;48761;42.680;23.312;2023-03-23T08:32:12;24.17;;;16.63;;
62696;SDS011;48761;42.680;23.312;2023-03-23T08:34:38;22.33;;;15.48;;
62696;SDS011;48761;42.680;23.312;2023-03-23T08:37:04;29.75;;;18.55;;
62696;SDS011;48761;42.680;23.312;2023-03-23T08:39:30;27.50;;;18.30;;
62696;SDS011;48761;42.680;23.312;2023-03-23T08:41:56;26.65;;;17.85;;
62696;SDS011;48761;42.680;23.312;2023-03-23T08:44:22;21.48;;;15.10;;
62696;SDS011;48761;42.680;23.312;2023-03-23T08:46:48;25.55;;;14.57;;
62696;SDS011;48761;42.680;23.312;2023-03-23T08:49:14;17.80;;;12.95;;
62696;SDS011;48761;42.680;23.312;2023-03-23T08:51:40;16.98;;;12.63;;
62696;SDS011;48761;42.680;23.312;2023-03-23T08:54:05;16.35;;;10.73;;
62696;SDS011;48761;42.680;23.312;2023-03-23T08:56:31;19.40;;;12.35;;
62696;SDS011;48761;42.680;23.312;2023-03-23T08:58:57;20.05;;;11.70;;
62696;SDS011;48761;42.680;23.312;2023-03-23T09:01:23;18.38;;;12.20;;
62696;SDS011;48761;42.680;23.312;2023-03-23T09:03:49;16.23;;;11.07;;
62696;SDS011;48761;42.680;23.312;2023-03-23T09:06:15;15.93;;;8.63;;
62696;SDS011;48761;42.680;23.312;2023-03-23T09:08:41;16.60;;;9.90;;
62696;SDS011;48761;42.680;23.312;2023-03-23T09:11:08;16.00;;;10.75;;
62696;SDS011;48761;42.680;23.312;2023-03-23T09:13:35;22.45;;;11.05;;
62696;SDS011;48761;42.680;23.312;2023-03-23T09:16:03;11.85;;;9.07;;
62696;SDS011;48761;42.680;23.312;2023-03-23T09:18:30;11.75;;;9.07;;
62696;SDS011;48761;42.680;23.312;2023-03-23T09:20:56;13.63;;;8.35;;
62696;SDS011;48761;42.680;23.312;2023-03-23T09:23:22;11.95;;;9.05;;
62696;SDS011;48761;42.680;23.312;2023-03-23T09:25:48;16.58;;;11.63;;
62696;SDS011;48761;42.680;23.312;2023-03-23T09:28:14;13.82;;;9.50;;
62696;SDS011;48761;42.680;23.312;2023-03-23T09:30:40;14.00;;;8.98;;
62696;SDS011;48761;42.680;23.312;2023-03-23T09:33:06;11.95;;;8.65;;
62696;SDS011;48761;42.680;23.312;2023-03-23T09:35:33;14.30;;;9.18;;
62696;SDS011;48761;42.680;23.312;2023-03-23T09:38:00;16.77;;;11.30;;
62696;SDS011;48761;42.680;23.312;2023-03-23T09:40:37;16.13;;;11.02;;
62696;SDS011;48761;42.680;23.312;2023-03-23T09:43:33;16.33;;;10.90;;
62696;SDS011;48761;42.680;23.312;2023-03-23T09:48:54;15.70;;;10.27;;
62696;SDS011;48761;42.680;23.312;2023-03-23T09:54:28;16.15;;;10.73;;
62696;SDS011;48761;42.680;23.312;2023-03-23T09:56:58;16.10;;;10.30;;
62696;SDS011;48761;42.680;23.312;2023-03-23T09:59:36;14.40;;;10.07;;
62696;SDS011;48761;42.680;23.312;2023-03-23T10:02:14;13.73;;;9.50;;
62696;SDS011;48761;42.680;23.312;2023-03-23T10:04:46;13.80;;;9.30;;
62696;SDS011;48761;42.680;23.312;2023-03-23T10:07:15;11.20;;;8.80;;
62696;SDS011;48761;42.680;23.312;2023-03-23T10:09:45;14.05;;;8.98;;
62696;SDS011;48761;42.680;23.312;2023-03-23T10:12:21;12.68;;;9.18;;
62696;SDS011;48761;42.680;23.312;2023-03-23T10:17:52;12.88;;;9.27;;
62696;SDS011;48761;42.680;23.312;2023-03-23T10:20:28;11.25;;;8.50;;
62696;SDS011;48761;42.680;23.312;2023-03-23T10:25:50;23.65;;;16.27;;
62696;SDS011;48761;42.680;23.312;2023-03-23T10:28:21;18.20;;;12.38;;
62696;SDS011;48761;42.680;23.312;2023-03-23T10:31:00;12.15;;;9.02;;
62696;SDS011;48761;42.680;23.312;2023-03-23T10:36:08;12.00;;;8.50;;
62696;SDS011;48761;42.680;23.312;2023-03-23T10:38:47;11.95;;;8.02;;
62696;SDS011;48761;42.680;23.312;2023-03-23T10:41:16;15.18;;;11.02;;
62696;SDS011;48761;42.680;23.312;2023-03-23T10:43:44;13.23;;;8.93;;
62696;SDS011;48761;42.680;23.312;2023-03-23T10:46:20;13.43;;;9.18;;
62696;SDS011;48761;42.680;23.312;2023-03-23T10:48:51;15.27;;;10.40;;
62696;SDS011;48761;42.680;23.312;2023-03-23T10:51:20;12.10;;;8.15;;
62696;SDS011;48761;42.680;23.312;2023-03-23T10:53:56;13.50;;;8.93;;
62696;SDS011;48761;42.680;23.312;2023-03-23T10:56:28;11.57;;;8.38;;
62696;SDS011;48761;42.680;23.312;2023-03-23T10:59:11;13.30;;;8.90;;
62696;SDS011;48761;42.680;23.312;2023-03-23T11:01:52;12.75;;;8.40;;
62696;SDS011;48761;42.680;23.312;2023-03-23T11:04:20;11.93;;;8.50;;
62696;SDS011;48761;42.680;23.312;2023-03-23T11:06:48;12.50;;;8.38;;
62696;SDS011;48761;42.680;23.312;2023-03-23T11:09:19;84.13;;;54.90;;
62696;SDS011;48761;42.680;23.312;2023-03-23T11:11:50;13.77;;;8.93;;
62696;SDS011;48761;42.680;23.312;2023-03-23T11:14:28;12.95;;;8.20;;
62696;SDS011;48761;42.680;23.312;2023-03-23T11:16:59;11.30;;;8.25;;
62696;SDS011;48761;42.680;23.312;2023-03-23T11:19:29;13.73;;;7.65;;
62696;SDS011;48761;42.680;23.312;2023-03-23T11:24:40;8.45;;;6.65;;
62696;SDS011;48761;42.680;23.312;2023-03-23T11:27:08;11.05;;;8.25;;
62696;SDS011;48761;42.680;23.312;2023-03-23T11:29:36;12.73;;;8.13;;
62696;SDS011;48761;42.680;23.312;2023-03-23T11:32:10;10.55;;;8.00;;
62696;SDS011;48761;42.680;23.312;2023-03-23T11:34:40;15.02;;;9.23;;
62696;SDS011;48761;42.680;23.312;2023-03-23T11:37:14;12.43;;;9.02;;
62696;SDS011;48761;42.680;23.312;2023-03-23T11:39:55;10.07;;;7.72;;
62696;SDS011;48761;42.680;23.312;2023-03-23T11:42:23;11.00;;;7.78;;
62696;SDS011;48761;42.680;23.312;2023-03-23T11:45:20;12.33;;;7.93;;
62696;SDS011;48761;42.680;23.312;2023-03-23T11:50:57;11.20;;;7.50;;
62696;SDS011;48761;42.680;23.312;2023-03-23T11:56:19;10.27;;;7.50;;
62696;SDS011;48761;42.680;23.312;2023-03-23T11:58:57;10.38;;;7.53;;
62696;SDS011;48761;42.680;23.312;2023-03-23T12:01:36;11.93;;;7.57;;
62696;SDS011;48761;42.680;23.312;2023-03-23T12:07:52;11.32;;;8.20;;
62696;SDS011;48761;42.680;23.312;2023-03-23T12:13:38;10.77;;;8.02;;
62696;SDS011;48761;42.680;23.312;2023-03-23T12:16:15;9.55;;;7.57;;
62696;SDS011;48761;42.680;23.312;2023-03-23T12:18:49;9.13;;;6.78;;
62696;SDS011;48761;42.680;23.312;2023-03-23T12:24:39;11.27;;;7.50;;
62696;SDS011;48761;42.680;23.312;2023-03-23T12:44:32;9.83;;;7.20;;
62696;SDS011;48761;42.680;23.312;2023-03-23T12:49:53;11.90;;;8.20;;
62696;SDS011;48761;42.680;23.312;2023-03-23T12:52:28;9.57;;;7.35;;
62696;SDS011;48761;42.680;23.312;2023-03-23T12:58:05;10.43;;;7.68;;
62696;SDS011;48761;42.680;23.312;2023-03-23T13:06:17;10.02;;;7.05;;
62696;SDS011;48761;42.680;23.312;2023-03-23T13:11:33;8.43;;;5.93;;
62696;SDS011;48761;42.680;23.312;2023-03-23T13:16:32;13.57;;;5.95;;
62696;SDS011;48761;42.680;23.312;2023-03-23T13:21:31;13.75;;;8.48;;
62696;SDS011;48761;42.680;23.312;2023-03-23T13:24:01;9.23;;;6.40;;
62696;SDS011;48761;42.680;23.312;2023-03-23T13:26:31;9.93;;;7.10;;
62696;SDS011;48761;42.680;23.312;2023-03-23T13:29:06;9.45;;;6.97;;
62696;SDS011;48761;42.680;23.312;2023-03-23T13:31:38;20.50;;;15.02;;
62696;SDS011;48761;42.680;23.312;2023-03-23T13:36:59;10.88;;;8.68;;
62696;SDS011;48761;42.680;23.312;2023-03-23T13:39:28;9.88;;;7.05;;
62696;SDS011;48761;42.680;23.312;2023-03-23T13:44:41;8.32;;;6.18;;
62696;SDS011;48761;42.680;23.312;2023-03-23T13:55:17;8.10;;;5.85;;
62696;SDS011;48761;42.680;23.312;2023-03-23T13:57:53;7.82;;;6.35;;
62696;SDS011;48761;42.680;23.312;2023-03-23T14:03:01;9.18;;;6.03;;
62696;SDS011;48761;42.680;23.312;2023-03-23T14:05:43;10.57;;;6.10;;
62696;SDS011;48761;42.680;23.312;2023-03-23T14:10:54;8.30;;;6.53;;
62696;SDS011;48761;42.680;23.312;2023-03-23T14:13:25;7.53;;;6.25;;
62696;SDS011;48761;42.680;23.312;2023-03-23T14:16:00;8.13;;;6.25;;
62696;SDS011;48761;42.680;23.312;2023-03-23T14:18:30;9.82;;;6.38;;
62696;SDS011;48761;42.680;23.312;2023-03-23T14:21:01;10.48;;;6.15;;
62696;SDS011;48761;42.680;23.312;2023-03-23T14:23:30;7.60;;;5.88;;
62696;SDS011;48761;42.680;23.312;2023-03-23T14:26:01;8.18;;;6.07;;
62696;SDS011;48761;42.680;23.312;2023-03-23T14:28:32;13.20;;;6.45;;
62696;SDS011;48761;42.680;23.312;2023-03-23T14:31:03;12.52;;;6.45;;
62696;SDS011;48761;42.680;23.312;2023-03-23T14:33:29;8.68;;;6.15;;
62696;SDS011;48761;42.680;23.312;2023-03-23T14:35:57;10.18;;;6.78;;
62696;SDS011;48761;42.680;23.312;2023-03-23T14:38:24;8.52;;;5.53;;
62696;SDS011;48761;42.680;23.312;2023-03-23T14:40:52;7.75;;;6.10;;
62696;SDS011;48761;42.680;23.312;2023-03-23T14:43:19;9.98;;;5.97;;
62696;SDS011;48761;42.680;23.312;2023-03-23T14:45:49;9.98;;;6.45;;
62696;SDS011;48761;42.680;23.312;2023-03-23T14:48:17;11.27;;;6.53;;
62696;SDS011;48761;42.680;23.312;2023-03-23T14:50:51;10.35;;;6.80;;
62696;SDS011;48761;42.680;23.312;2023-03-23T14:53:22;11.18;;;6.43;;
62696;SDS011;48761;42.680;23.312;2023-03-23T14:55:51;10.95;;;6.20;;
62696;SDS011;48761;42.680;23.312;2023-03-23T14:58:20;10.35;;;6.20;;
62696;SDS011;48761;42.680;23.312;2023-03-23T15:03:40;10.68;;;5.78;;
62696;SDS011;48761;42.680;23.312;2023-03-23T15:06:13;9.02;;;6.20;;
62696;SDS011;48761;42.680;23.312;2023-03-23T15:08:43;12.10;;;7.03;;
62696;SDS011;48761;42.680;23.312;2023-03-23T15:11:12;11.20;;;6.38;;
62696;SDS011;48761;42.680;23.312;2023-03-23T15:13:43;10.95;;;6.70;;
62696;SDS011;48761;42.680;23.312;2023-03-23T15:16:23;12.27;;;7.18;;
62696;SDS011;48761;42.680;23.312;2023-03-23T15:24:20;9.40;;;6.32;;
62696;SDS011;48761;42.680;23.312;2023-03-23T15:27:32;10.32;;;6.85;;
62696;SDS011;48761;42.680;23.312;2023-03-23T15:29:55;9.68;;;6.85;;
62696;SDS011;48761;42.680;23.312;2023-03-23T15:32:27;10.18;;;6.22;;
62696;SDS011;48761;42.680;23.312;2023-03-23T15:35:03;10.25;;;6.93;;
62696;SDS011;48761;42.680;23.312;2023-03-23T15:37:39;10.48;;;6.85;;
62696;SDS011;48761;42.680;23.312;2023-03-23T15:40:15;15.23;;;6.78;;
62696;SDS011;48761;42.680;23.312;2023-03-23T15:42:42;11.32;;;7.10;;
62696;SDS011;48761;42.680;23.312;2023-03-23T15:52:38;10.87;;;7.13;;
62696;SDS011;48761;42.680;23.312;2023-03-23T15:55:16;12.50;;;7.75;;
62696;SDS011;48761;42.680;23.312;2023-03-23T15:57:52;9.82;;;6.85;;
62696;SDS011;48761;42.680;23.312;2023-03-23T16:00:20;10.38;;;6.97;;
62696;SDS011;48761;42.680;23.312;2023-03-23T16:02:49;8.60;;;5.88;;
62696;SDS011;48761;42.680;23.312;2023-03-23T16:05:21;17.13;;;8.07;;
62696;SDS011;48761;42.680;23.312;2023-03-23T16:07:48;11.13;;;6.90;;
62696;SDS011;48761;42.680;23.312;2023-03-23T16:10:15;13.60;;;7.00;;
62696;SDS011;48761;42.680;23.312;2023-03-23T16:12:43;14.13;;;7.20;;
62696;SDS011;48761;42.680;23.312;2023-03-23T16:15:10;9.65;;;7.03;;
62696;SDS011;48761;42.680;23.312;2023-03-23T16:17:37;9.93;;;7.03;;
62696;SDS011;48761;42.680;23.312;2023-03-23T16:20:13;8.27;;;6.47;;
62696;SDS011;48761;42.680;23.312;2023-03-23T16:22:41;13.00;;;7.72;;
62696;SDS011;48761;42.680;23.312;2023-03-23T16:25:08;8.73;;;6.90;;
62696;SDS011;48761;42.680;23.312;2023-03-23T16:27:34;9.07;;;7.07;;
62696;SDS011;48761;42.680;23.312;2023-03-23T16:30:01;16.40;;;8.02;;